sensor_id;sensor_type;location;lat;lon;timestamp;P1;durP1;ratioP1;P2;durP2;ratioP2
38224;SDS011;24025;48.138;11.428;2022-09-17T00:00:11;3.22;;;2.47;;
38224;SDS011;24025;48.138;11.428;2022-09-17T00:02:41;2.53;;;2.33;;
38224;SDS011;24025;48.138;11.428;2022-09-17T00:05:15;4.05;;;2.63;;
38224;SDS011;24025;48.138;11.428;2022-09-17T00:07:45;5.78;;;2.20;;
38224;SDS011;24025;48.138;11.428;2022-09-17T00:10:16;3.50;;;1.98;;
38224;SDS011;24025;48.138;11.428;2022-09-17T00:12:47;8.85;;;2.15;;
38224;SDS011;24025;48.138;11.428;2022-09-17T00:15:18;3.25;;;1.98;;
38224;SDS011;24025;48.138;11.428;2022-09-17T00:17:52;3.67;;;2.10;;
38224;SDS011;24025;48.138;11.428;2022-09-17T00:20:24;4.00;;;2.08;;
38224;SDS011;24025;48.138;11.428;2022-09-17T00:22:55;2.60;;;1.42;;
38224;SDS011;24025;48.138;11.428;2022-09-17T00:25:25;3.42;;;1.52;;
38224;SDS011;24025;48.138;11.428;2022-09-17T00:27:56;9.70;;;1.77;;
38224;SDS011;24025;48.138;11.428;2022-09-17T00:30:26;1.63;;;1.52;;
38224;SDS011;24025;48.138;11.428;2022-09-17T00:32:57;3.47;;;1.95;;
38224;SDS011;24025;48.138;11.428;2022-09-17T00:35:27;4.10;;;1.77;;
38224;SDS011;24025;48.138;11.428;2022-09-17T00:37:58;5.70;;;1.50;;
38224;SDS011;24025;48.138;11.428;2022-09-17T00:40:28;2.22;;;1.02;;
38224;SDS011;24025;48.138;11.428;2022-09-17T00:42:58;4.13;;;1.40;;
38224;SDS011;24025;48.138;11.428;2022-09-17T00:45:29;6.25;;;1.30;;
38224;SDS011;24025;48.138;11.428;2022-09-17T00:48:01;2.22;;;1.17;;
38224;SDS011;24025;48.138;11.428;2022-09-17T00:50:38;1.92;;;1.23;;
38224;SDS011;24025;48.138;11.428;2022-09-17T00:53:11;9.50;;;1.02;;
38224;SDS011;24025;48.138;11.428;2022-09-17T00:55:45;2.33;;;1.17;;
38224;SDS011;24025;48.138;11.428;2022-09-17T00:58:20;1.10;;;0.82;;
38224;SDS011;24025;48.138;11.428;2022-09-17T01:00:52;2.72;;;1.98;;
38224;SDS011;24025;48.138;11.428;2022-09-17T01:03:22;1.80;;;1.00;;
38224;SDS011;24025;48.138;11.428;2022-09-17T01:36:02;2.40;;;0.93;;
38224;SDS011;24025;48.138;11.428;2022-09-17T01:38:49;1.63;;;0.90;;
38224;SDS011;24025;48.138;11.428;2022-09-17T01:41:31;0.90;;;0.65;;
38224;SDS011;24025;48.138;11.428;2022-09-17T01:44:07;1.58;;;0.70;;
38224;SDS011;24025;48.138;11.428;2022-09-17T01:46:50;1.85;;;0.70;;
38224;SDS011;24025;48.138;11.428;2022-09-17T01:49:24;1.27;;;0.57;;
38224;SDS011;24025;48.138;11.428;2022-09-17T01:51:55;0.70;;;0.50;;
38224;SDS011;24025;48.138;11.428;2022-09-17T02:00:09;3.78;;;0.73;;
38224;SDS011;24025;48.138;11.428;2022-09-17T02:02:47;1.65;;;0.90;;
38224;SDS011;24025;48.138;11.428;2022-09-17T02:05:26;3.97;;;0.90;;
38224;SDS011;24025;48.138;11.428;2022-09-17T02:08:13;2.05;;;0.70;;
38224;SDS011;24025;48.138;11.428;2022-09-17T02:11:00;2.75;;;0.82;;
38224;SDS011;24025;48.138;11.428;2022-09-17T02:19:06;1.40;;;0.95;;
38224;SDS011;24025;48.138;11.428;2022-09-17T02:21:47;2.65;;;0.90;;
38224;SDS011;24025;48.138;11.428;2022-09-17T02:24:43;1.50;;;0.80;;
38224;SDS011;24025;48.138;11.428;2022-09-17T02:27:30;2.47;;;0.65;;
38224;SDS011;24025;48.138;11.428;2022-09-17T02:30:12;1.38;;;0.80;;
38224;SDS011;24025;48.138;11.428;2022-09-17T02:32:43;1.02;;;0.70;;
38224;SDS011;24025;48.138;11.428;2022-09-17T02:35:14;2.00;;;0.90;;
38224;SDS011;24025;48.138;11.428;2022-09-17T02:37:44;3.17;;;0.90;;
38224;SDS011;24025;48.138;11.428;2022-09-17T02:40:16;2.17;;;0.88;;
38224;SDS011;24025;48.138;11.428;2022-09-17T03:00:05;0.70;;;0.57;;
38224;SDS011;24025;48.138;11.428;2022-09-17T03:02:45;2.50;;;0.80;;
38224;SDS011;24025;48.138;11.428;2022-09-17T03:05:20;5.80;;;0.70;;
38224;SDS011;24025;48.138;11.428;2022-09-17T03:07:55;0.85;;;0.70;;
38224;SDS011;24025;48.138;11.428;2022-09-17T03:10:28;1.25;;;0.65;;
38224;SDS011;24025;48.138;11.428;2022-09-17T03:13:02;4.88;;;1.05;;
38224;SDS011;24025;48.138;11.428;2022-09-17T03:15:33;2.00;;;1.13;;
38224;SDS011;24025;48.138;11.428;2022-09-17T03:18:03;4.10;;;0.70;;
38224;SDS011;24025;48.138;11.428;2022-09-17T03:20:34;4.63;;;1.00;;
38224;SDS011;24025;48.138;11.428;2022-09-17T03:23:04;2.97;;;0.80;;
38224;SDS011;24025;48.138;11.428;2022-09-17T03:25:34;6.32;;;0.82;;
38224;SDS011;24025;48.138;11.428;2022-09-17T03:28:05;1.58;;;0.90;;
38224;SDS011;24025;48.138;11.428;2022-09-17T03:30:35;1.92;;;1.10;;
38224;SDS011;24025;48.138;11.428;2022-09-17T03:33:05;1.27;;;0.90;;
38224;SDS011;24025;48.138;11.428;2022-09-17T03:35:36;6.93;;;1.83;;
38224;SDS011;24025;48.138;11.428;2022-09-17T03:38:06;0.75;;;0.65;;
38224;SDS011;24025;48.138;11.428;2022-09-17T03:40:37;2.88;;;0.90;;
38224;SDS011;24025;48.138;11.428;2022-09-17T03:43:08;1.08;;;0.98;;
38224;SDS011;24025;48.138;11.428;2022-09-17T03:45:38;1.10;;;0.80;;
38224;SDS011;24025;48.138;11.428;2022-09-17T03:48:08;2.78;;;0.80;;
38224;SDS011;24025;48.138;11.428;2022-09-17T03:50:39;1.20;;;0.68;;
38224;SDS011;24025;48.138;11.428;2022-09-17T03:53:09;2.13;;;0.75;;
38224;SDS011;24025;48.138;11.428;2022-09-17T03:55:40;1.85;;;0.70;;
38224;SDS011;24025;48.138;11.428;2022-09-17T03:58:10;2.70;;;0.93;;
38224;SDS011;24025;48.138;11.428;2022-09-17T04:00:41;0.90;;;0.77;;
38224;SDS011;24025;48.138;11.428;2022-09-17T04:03:12;3.35;;;0.85;;
38224;SDS011;24025;48.138;11.428;2022-09-17T04:05:42;2.92;;;0.75;;
38224;SDS011;24025;48.138;11.428;2022-09-17T04:08:13;1.42;;;0.65;;
38224;SDS011;24025;48.138;11.428;2022-09-17T04:10:43;3.35;;;1.00;;
38224;SDS011;24025;48.138;11.428;2022-09-17T04:13:15;1.60;;;0.90;;
38224;SDS011;24025;48.138;11.428;2022-09-17T04:15:46;1.23;;;1.00;;
38224;SDS011;24025;48.138;11.428;2022-09-17T04:18:16;0.77;;;0.63;;
38224;SDS011;24025;48.138;11.428;2022-09-17T04:20:47;1.23;;;0.80;;
38224;SDS011;24025;48.138;11.428;2022-09-17T04:23:17;2.08;;;0.88;;
38224;SDS011;24025;48.138;11.428;2022-09-17T04:25:47;0.70;;;0.60;;
38224;SDS011;24025;48.138;11.428;2022-09-17T04:28:18;1.70;;;1.27;;
38224;SDS011;24025;48.138;11.428;2022-09-17T04:30:48;1.60;;;0.80;;
38224;SDS011;24025;48.138;11.428;2022-09-17T04:33:19;2.97;;;0.73;;
38224;SDS011;24025;48.138;11.428;2022-09-17T04:35:49;5.18;;;1.00;;
38224;SDS011;24025;48.138;11.428;2022-09-17T04:38:20;2.95;;;1.00;;
38224;SDS011;24025;48.138;11.428;2022-09-17T04:40:51;3.72;;;0.77;;
38224;SDS011;24025;48.138;11.428;2022-09-17T04:43:21;8.25;;;0.73;;
38224;SDS011;24025;48.138;11.428;2022-09-17T04:45:52;2.55;;;0.93;;
38224;SDS011;24025;48.138;11.428;2022-09-17T04:48:22;3.95;;;0.80;;
38224;SDS011;24025;48.138;11.428;2022-09-17T04:50:53;5.00;;;0.77;;
38224;SDS011;24025;48.138;11.428;2022-09-17T04:53:23;5.28;;;0.88;;
38224;SDS011;24025;48.138;11.428;2022-09-17T04:55:53;1.80;;;1.10;;
38224;SDS011;24025;48.138;11.428;2022-09-17T04:58:24;4.10;;;0.80;;
38224;SDS011;24025;48.138;11.428;2022-09-17T05:00:54;1.75;;;0.75;;
38224;SDS011;24025;48.138;11.428;2022-09-17T05:03:24;9.07;;;0.65;;
38224;SDS011;24025;48.138;11.428;2022-09-17T05:05:55;1.88;;;0.65;;
38224;SDS011;24025;48.138;11.428;2022-09-17T05:08:25;3.78;;;0.90;;
38224;SDS011;24025;48.138;11.428;2022-09-17T05:10:56;3.90;;;0.82;;
38224;SDS011;24025;48.138;11.428;2022-09-17T05:13:26;2.42;;;0.47;;
38224;SDS011;24025;48.138;11.428;2022-09-17T05:15:57;2.25;;;0.60;;
38224;SDS011;24025;48.138;11.428;2022-09-17T05:18:27;5.25;;;0.60;;
38224;SDS011;24025;48.138;11.428;2022-09-17T05:20:57;1.85;;;0.52;;
38224;SDS011;24025;48.138;11.428;2022-09-17T05:23:28;4.10;;;0.80;;
38224;SDS011;24025;48.138;11.428;2022-09-17T05:25:59;5.25;;;1.23;;
38224;SDS011;24025;48.138;11.428;2022-09-17T05:28:29;4.13;;;0.80;;
38224;SDS011;24025;48.138;11.428;2022-09-17T05:31:00;1.75;;;0.50;;
38224;SDS011;24025;48.138;11.428;2022-09-17T05:33:31;4.57;;;0.77;;
38224;SDS011;24025;48.138;11.428;2022-09-17T05:36:01;4.18;;;0.90;;
38224;SDS011;24025;48.138;11.428;2022-09-17T05:38:32;1.20;;;0.68;;
38224;SDS011;24025;48.138;11.428;2022-09-17T05:41:03;2.10;;;0.90;;
38224;SDS011;24025;48.138;11.428;2022-09-17T05:43:35;5.47;;;0.80;;
38224;SDS011;24025;48.138;11.428;2022-09-17T05:46:05;2.17;;;0.73;;
38224;SDS011;24025;48.138;11.428;2022-09-17T05:48:36;2.83;;;0.60;;
38224;SDS011;24025;48.138;11.428;2022-09-17T05:51:06;1.70;;;0.47;;
38224;SDS011;24025;48.138;11.428;2022-09-17T05:53:37;1.80;;;0.50;;
38224;SDS011;24025;48.138;11.428;2022-09-17T05:56:07;1.88;;;0.50;;
38224;SDS011;24025;48.138;11.428;2022-09-17T05:58:38;1.55;;;0.70;;
38224;SDS011;24025;48.138;11.428;2022-09-17T06:01:08;3.53;;;0.80;;
38224;SDS011;24025;48.138;11.428;2022-09-17T06:03:44;3.40;;;0.38;;
38224;SDS011;24025;48.138;11.428;2022-09-17T06:06:15;1.95;;;0.60;;
38224;SDS011;24025;48.138;11.428;2022-09-17T06:08:45;4.72;;;1.00;;
38224;SDS011;24025;48.138;11.428;2022-09-17T06:11:16;3.30;;;0.88;;
38224;SDS011;24025;48.138;11.428;2022-09-17T06:13:46;6.63;;;0.60;;
38224;SDS011;24025;48.138;11.428;2022-09-17T06:16:16;3.63;;;0.63;;
38224;SDS011;24025;48.138;11.428;2022-09-17T06:18:47;1.65;;;0.40;;
38224;SDS011;24025;48.138;11.428;2022-09-17T06:21:19;2.67;;;0.68;;
38224;SDS011;24025;48.138;11.428;2022-09-17T06:23:53;7.35;;;0.50;;
38224;SDS011;24025;48.138;11.428;2022-09-17T06:26:24;3.42;;;0.70;;
38224;SDS011;24025;48.138;11.428;2022-09-17T06:28:54;2.72;;;0.65;;
38224;SDS011;24025;48.138;11.428;2022-09-17T06:33:57;3.63;;;0.70;;
38224;SDS011;24025;48.138;11.428;2022-09-17T06:36:28;4.00;;;0.75;;
38224;SDS011;24025;48.138;11.428;2022-09-17T06:38:58;8.50;;;0.65;;
38224;SDS011;24025;48.138;11.428;2022-09-17T06:41:28;4.32;;;0.57;;
38224;SDS011;24025;48.138;11.428;2022-09-17T06:43:59;5.30;;;1.05;;
38224;SDS011;24025;48.138;11.428;2022-09-17T06:46:31;6.40;;;1.00;;
38224;SDS011;24025;48.138;11.428;2022-09-17T06:49:01;1.52;;;0.60;;
38224;SDS011;24025;48.138;11.428;2022-09-17T06:51:32;1.88;;;0.82;;
38224;SDS011;24025;48.138;11.428;2022-09-17T06:54:02;2.97;;;0.90;;
38224;SDS011;24025;48.138;11.428;2022-09-17T06:56:33;6.75;;;0.82;;
38224;SDS011;24025;48.138;11.428;2022-09-17T06:59:04;3.92;;;0.70;;
38224;SDS011;24025;48.138;11.428;2022-09-17T07:01:34;4.78;;;0.77;;
38224;SDS011;24025;48.138;11.428;2022-09-17T07:04:04;11.77;;;1.33;;
38224;SDS011;24025;48.138;11.428;2022-09-17T07:10:01;7.82;;;0.60;;
38224;SDS011;24025;48.138;11.428;2022-09-17T07:12:32;1.27;;;0.60;;
38224;SDS011;24025;48.138;11.428;2022-09-17T07:15:02;4.57;;;0.60;;
38224;SDS011;24025;48.138;11.428;2022-09-17T07:17:33;15.45;;;1.00;;
38224;SDS011;24025;48.138;11.428;2022-09-17T07:20:04;5.68;;;1.08;;
38224;SDS011;24025;48.138;11.428;2022-09-17T07:22:36;3.55;;;0.60;;
38224;SDS011;24025;48.138;11.428;2022-09-17T07:25:06;3.50;;;0.70;;
38224;SDS011;24025;48.138;11.428;2022-09-17T07:27:37;5.32;;;0.47;;
38224;SDS011;24025;48.138;11.428;2022-09-17T07:30:08;4.50;;;0.98;;
38224;SDS011;24025;48.138;11.428;2022-09-17T07:32:39;4.90;;;0.90;;
38224;SDS011;24025;48.138;11.428;2022-09-17T07:35:10;5.70;;;0.68;;
38224;SDS011;24025;48.138;11.428;2022-09-17T07:37:41;5.00;;;0.70;;
38224;SDS011;24025;48.138;11.428;2022-09-17T07:40:11;2.75;;;0.63;;
38224;SDS011;24025;48.138;11.428;2022-09-17T07:42:41;9.07;;;0.60;;
38224;SDS011;24025;48.138;11.428;2022-09-17T07:45:12;4.72;;;0.50;;
38224;SDS011;24025;48.138;11.428;2022-09-17T07:47:42;3.20;;;0.90;;
38224;SDS011;24025;48.138;11.428;2022-09-17T07:50:13;8.68;;;0.70;;
38224;SDS011;24025;48.138;11.428;2022-09-17T07:52:46;3.13;;;0.93;;
38224;SDS011;24025;48.138;11.428;2022-09-17T07:55:17;5.10;;;0.95;;
38224;SDS011;24025;48.138;11.428;2022-09-17T07:57:51;2.72;;;1.08;;
38224;SDS011;24025;48.138;11.428;2022-09-17T08:00:21;5.85;;;0.82;;
38224;SDS011;24025;48.138;11.428;2022-09-17T08:02:52;3.22;;;0.70;;
38224;SDS011;24025;48.138;11.428;2022-09-17T08:05:24;3.30;;;0.75;;
38224;SDS011;24025;48.138;11.428;2022-09-17T08:07:54;4.97;;;0.68;;
38224;SDS011;24025;48.138;11.428;2022-09-17T08:10:25;3.28;;;0.50;;
38224;SDS011;24025;48.138;11.428;2022-09-17T08:12:56;6.28;;;1.00;;
38224;SDS011;24025;48.138;11.428;2022-09-17T08:15:27;3.97;;;0.98;;
38224;SDS011;24025;48.138;11.428;2022-09-17T08:17:58;5.00;;;0.65;;
38224;SDS011;24025;48.138;11.428;2022-09-17T08:20:28;3.75;;;0.55;;
38224;SDS011;24025;48.138;11.428;2022-09-17T08:22:59;7.18;;;0.77;;
38224;SDS011;24025;48.138;11.428;2022-09-17T08:25:30;3.57;;;0.70;;
38224;SDS011;24025;48.138;11.428;2022-09-17T08:28:00;4.40;;;0.98;;
38224;SDS011;24025;48.138;11.428;2022-09-17T08:30:31;8.27;;;1.00;;
38224;SDS011;24025;48.138;11.428;2022-09-17T08:33:02;6.53;;;0.88;;
38224;SDS011;24025;48.138;11.428;2022-09-17T08:35:32;4.15;;;1.08;;
38224;SDS011;24025;48.138;11.428;2022-09-17T08:38:02;4.18;;;0.80;;
38224;SDS011;24025;48.138;11.428;2022-09-17T08:40:35;8.80;;;0.70;;
38224;SDS011;24025;48.138;11.428;2022-09-17T08:43:16;2.58;;;0.77;;
38224;SDS011;24025;48.138;11.428;2022-09-17T08:48:27;5.07;;;1.00;;
38224;SDS011;24025;48.138;11.428;2022-09-17T08:51:10;3.08;;;0.80;;
38224;SDS011;24025;48.138;11.428;2022-09-17T08:54:17;4.28;;;0.82;;
38224;SDS011;24025;48.138;11.428;2022-09-17T08:57:15;8.98;;;1.05;;
38224;SDS011;24025;48.138;11.428;2022-09-17T09:05:47;5.43;;;0.73;;
38224;SDS011;24025;48.138;11.428;2022-09-17T09:08:24;11.15;;;1.00;;
38224;SDS011;24025;48.138;11.428;2022-09-17T09:11:03;2.70;;;0.63;;
38224;SDS011;24025;48.138;11.428;2022-09-17T09:13:41;7.47;;;0.82;;
38224;SDS011;24025;48.138;11.428;2022-09-17T09:16:16;2.38;;;0.40;;
38224;SDS011;24025;48.138;11.428;2022-09-17T09:18:57;1.63;;;0.45;;
38224;SDS011;24025;48.138;11.428;2022-09-17T09:27:38;6.47;;;1.00;;
38224;SDS011;24025;48.138;11.428;2022-09-17T09:30:17;3.92;;;0.90;;
38224;SDS011;24025;48.138;11.428;2022-09-17T09:32:59;6.72;;;0.88;;
38224;SDS011;24025;48.138;11.428;2022-09-17T09:35:35;8.98;;;1.42;;
38224;SDS011;24025;48.138;11.428;2022-09-17T09:41:12;4.72;;;0.73;;
38224;SDS011;24025;48.138;11.428;2022-09-17T09:43:49;4.32;;;0.60;;
38224;SDS011;24025;48.138;11.428;2022-09-17T09:52:39;5.15;;;0.70;;
38224;SDS011;24025;48.138;11.428;2022-09-17T09:58:07;9.85;;;0.85;;
38224;SDS011;24025;48.138;11.428;2022-09-17T10:01:02;7.30;;;0.70;;
38224;SDS011;24025;48.138;11.428;2022-09-17T10:03:38;3.42;;;0.77;;
38224;SDS011;24025;48.138;11.428;2022-09-17T10:06:12;5.13;;;0.90;;
38224;SDS011;24025;48.138;11.428;2022-09-17T10:11:30;2.47;;;0.65;;
38224;SDS011;24025;48.138;11.428;2022-09-17T10:14:14;3.20;;;0.43;;
38224;SDS011;24025;48.138;11.428;2022-09-17T10:16:45;3.05;;;0.50;;
38224;SDS011;24025;48.138;11.428;2022-09-17T10:19:19;2.95;;;0.73;;
38224;SDS011;24025;48.138;11.428;2022-09-17T10:21:54;3.30;;;0.68;;
38224;SDS011;24025;48.138;11.428;2022-09-17T10:24:29;3.95;;;0.85;;
38224;SDS011;24025;48.138;11.428;2022-09-17T10:27:03;7.72;;;1.48;;
38224;SDS011;24025;48.138;11.428;2022-09-17T10:29:42;3.38;;;0.73;;
38224;SDS011;24025;48.138;11.428;2022-09-17T10:32:16;2.33;;;0.70;;
38224;SDS011;24025;48.138;11.428;2022-09-17T10:37:51;4.40;;;0.60;;
38224;SDS011;24025;48.138;11.428;2022-09-17T10:40:24;3.40;;;0.52;;
38224;SDS011;24025;48.138;11.428;2022-09-17T10:45:56;1.35;;;0.52;;
38224;SDS011;24025;48.138;11.428;2022-09-17T10:48:32;5.07;;;0.88;;
38224;SDS011;24025;48.138;11.428;2022-09-17T10:51:06;5.88;;;0.77;;
38224;SDS011;24025;48.138;11.428;2022-09-17T10:53:54;5.25;;;0.82;;
38224;SDS011;24025;48.138;11.428;2022-09-17T10:56:33;4.15;;;0.90;;
38224;SDS011;24025;48.138;11.428;2022-09-17T10:59:21;4.60;;;0.80;;
38224;SDS011;24025;48.138;11.428;2022-09-17T11:04:42;8.82;;;2.28;;
38224;SDS011;24025;48.138;11.428;2022-09-17T11:07:21;2.00;;;0.65;;
38224;SDS011;24025;48.138;11.428;2022-09-17T11:10:02;4.43;;;0.80;;
38224;SDS011;24025;48.138;11.428;2022-09-17T11:26:42;1.38;;;0.17;;
38224;SDS011;24025;48.138;11.428;2022-09-17T11:35:10;0.77;;;0.30;;
38224;SDS011;24025;48.138;11.428;2022-09-17T11:37:55;4.15;;;0.80;;
38224;SDS011;24025;48.138;11.428;2022-09-17T11:40:51;1.08;;;0.30;;
38224;SDS011;24025;48.138;11.428;2022-09-17T11:43:28;5.47;;;0.45;;
38224;SDS011;24025;48.138;11.428;2022-09-17T11:48:45;1.00;;;0.47;;
38224;SDS011;24025;48.138;11.428;2022-09-17T11:56:35;0.82;;;0.32;;
38224;SDS011;24025;48.138;11.428;2022-09-17T11:59:26;5.03;;;0.65;;
38224;SDS011;24025;48.138;11.428;2022-09-17T12:04:57;2.83;;;0.57;;
38224;SDS011;24025;48.138;11.428;2022-09-17T12:15:56;3.65;;;0.85;;
38224;SDS011;24025;48.138;11.428;2022-09-17T12:18:51;4.35;;;1.08;;
38224;SDS011;24025;48.138;11.428;2022-09-17T12:35:37;4.18;;;0.57;;
38224;SDS011;24025;48.138;11.428;2022-09-17T12:41:19;3.38;;;0.50;;
38224;SDS011;24025;48.138;11.428;2022-09-17T12:44:01;2.58;;;0.52;;
38224;SDS011;24025;48.138;11.428;2022-09-17T12:55:24;6.07;;;0.80;;
38224;SDS011;24025;48.138;11.428;2022-09-17T13:01:02;4.30;;;0.45;;
38224;SDS011;24025;48.138;11.428;2022-09-17T13:12:30;3.63;;;0.60;;
38224;SDS011;24025;48.138;11.428;2022-09-17T13:18:06;2.30;;;0.60;;
38224;SDS011;24025;48.138;11.428;2022-09-17T13:20:59;3.42;;;0.85;;
38224;SDS011;24025;48.138;11.428;2022-09-17T13:23:46;3.42;;;0.77;;
38224;SDS011;24025;48.138;11.428;2022-09-17T13:26:18;5.95;;;0.80;;
38224;SDS011;24025;48.138;11.428;2022-09-17T13:28:51;5.03;;;1.25;;
38224;SDS011;24025;48.138;11.428;2022-09-17T13:32:07;2.75;;;0.80;;
38224;SDS011;24025;48.138;11.428;2022-09-17T13:36:59;2.78;;;0.65;;
38224;SDS011;24025;48.138;11.428;2022-09-17T13:39:46;3.67;;;0.90;;
38224;SDS011;24025;48.138;11.428;2022-09-17T13:42:24;4.32;;;0.85;;
38224;SDS011;24025;48.138;11.428;2022-09-17T13:47:52;7.15;;;0.85;;
38224;SDS011;24025;48.138;11.428;2022-09-17T13:55:52;2.35;;;0.50;;
38224;SDS011;24025;48.138;11.428;2022-09-17T13:58:27;0.75;;;0.22;;
38224;SDS011;24025;48.138;11.428;2022-09-17T14:01:04;2.33;;;0.30;;
38224;SDS011;24025;48.138;11.428;2022-09-17T14:11:56;1.55;;;0.50;;
38224;SDS011;24025;48.138;11.428;2022-09-17T14:21:54;3.03;;;0.60;;
38224;SDS011;24025;48.138;11.428;2022-09-17T14:24:50;2.85;;;0.50;;
38224;SDS011;24025;48.138;11.428;2022-09-17T14:30:19;1.05;;;0.40;;
38224;SDS011;24025;48.138;11.428;2022-09-17T14:41:02;3.50;;;0.57;;
38224;SDS011;24025;48.138;11.428;2022-09-17T14:43:51;2.10;;;0.47;;
38224;SDS011;24025;48.138;11.428;2022-09-17T14:47:10;3.15;;;0.63;;
38224;SDS011;24025;48.138;11.428;2022-09-17T14:49:37;2.83;;;0.40;;
38224;SDS011;24025;48.138;11.428;2022-09-17T14:52:26;1.55;;;0.50;;
38224;SDS011;24025;48.138;11.428;2022-09-17T14:55:08;2.33;;;0.47;;
38224;SDS011;24025;48.138;11.428;2022-09-17T14:57:39;1.05;;;0.10;;
38224;SDS011;24025;48.138;11.428;2022-09-17T15:00:17;2.65;;;0.10;;
38224;SDS011;24025;48.138;11.428;2022-09-17T15:02:54;0.60;;;0.20;;
38224;SDS011;24025;48.138;11.428;2022-09-17T15:05:29;0.63;;;0.40;;
38224;SDS011;24025;48.138;11.428;2022-09-17T15:10:46;3.47;;;0.52;;
38224;SDS011;24025;48.138;11.428;2022-09-17T15:13:20;3.03;;;0.30;;
38224;SDS011;24025;48.138;11.428;2022-09-17T15:16:03;4.35;;;0.38;;
38224;SDS011;24025;48.138;11.428;2022-09-17T15:21:20;1.52;;;0.98;;
38224;SDS011;24025;48.138;11.428;2022-09-17T15:26:57;0.60;;;0.28;;
38224;SDS011;24025;48.138;11.428;2022-09-17T15:29:32;3.80;;;0.50;;
38224;SDS011;24025;48.138;11.428;2022-09-17T15:32:04;0.95;;;0.30;;
38224;SDS011;24025;48.138;11.428;2022-09-17T15:34:35;1.25;;;0.47;;
38224;SDS011;24025;48.138;11.428;2022-09-17T15:37:19;0.85;;;0.45;;
38224;SDS011;24025;48.138;11.428;2022-09-17T15:39:54;1.25;;;0.50;;
38224;SDS011;24025;48.138;11.428;2022-09-17T15:42:29;1.10;;;0.30;;
38224;SDS011;24025;48.138;11.428;2022-09-17T15:45:25;2.58;;;0.80;;
38224;SDS011;24025;48.138;11.428;2022-09-17T15:47:58;3.88;;;0.80;;
38224;SDS011;24025;48.138;11.428;2022-09-17T15:50:30;4.18;;;1.23;;
38224;SDS011;24025;48.138;11.428;2022-09-17T15:55:43;1.38;;;0.80;;
38224;SDS011;24025;48.138;11.428;2022-09-17T15:58:19;1.17;;;0.65;;
38224;SDS011;24025;48.138;11.428;2022-09-17T16:06:45;2.33;;;0.40;;
38224;SDS011;24025;48.138;11.428;2022-09-17T16:12:18;2.67;;;0.50;;
38224;SDS011;24025;48.138;11.428;2022-09-17T16:14:54;2.65;;;0.98;;
38224;SDS011;24025;48.138;11.428;2022-09-17T16:20:22;2.53;;;0.20;;
38224;SDS011;24025;48.138;11.428;2022-09-17T16:22:54;0.73;;;0.20;;
38224;SDS011;24025;48.138;11.428;2022-09-17T16:25:26;0.10;;;0.10;;
38224;SDS011;24025;48.138;11.428;2022-09-17T16:30:57;0.52;;;0.40;;
38224;SDS011;24025;48.138;11.428;2022-09-17T16:33:28;0.57;;;0.30;;
38224;SDS011;24025;48.138;11.428;2022-09-17T16:35:59;1.27;;;0.30;;
38224;SDS011;24025;48.138;11.428;2022-09-17T16:38:30;2.40;;;0.40;;
38224;SDS011;24025;48.138;11.428;2022-09-17T16:41:03;0.90;;;0.28;;
38224;SDS011;24025;48.138;11.428;2022-09-17T16:43:34;1.00;;;0.50;;
38224;SDS011;24025;48.138;11.428;2022-09-17T16:46:08;0.80;;;0.30;;
38224;SDS011;24025;48.138;11.428;2022-09-17T16:51:14;1.20;;;0.40;;
38224;SDS011;24025;48.138;11.428;2022-09-17T16:53:44;0.63;;;0.30;;
38224;SDS011;24025;48.138;11.428;2022-09-17T16:56:15;0.40;;;0.30;;
38224;SDS011;24025;48.138;11.428;2022-09-17T16:58:45;0.30;;;0.20;;
38224;SDS011;24025;48.138;11.428;2022-09-17T17:01:16;2.50;;;0.60;;
38224;SDS011;24025;48.138;11.428;2022-09-17T17:03:49;1.02;;;0.40;;
38224;SDS011;24025;48.138;11.428;2022-09-17T17:06:20;6.03;;;0.68;;
38224;SDS011;24025;48.138;11.428;2022-09-17T17:08:51;0.45;;;0.40;;
38224;SDS011;24025;48.138;11.428;2022-09-17T17:11:21;1.15;;;0.30;;
38224;SDS011;24025;48.138;11.428;2022-09-17T17:13:52;1.50;;;0.40;;
38224;SDS011;24025;48.138;11.428;2022-09-17T17:16:25;2.33;;;0.40;;
38224;SDS011;24025;48.138;11.428;2022-09-17T17:18:55;4.03;;;0.70;;
38224;SDS011;24025;48.138;11.428;2022-09-17T17:21:26;1.77;;;0.40;;
38224;SDS011;24025;48.138;11.428;2022-09-17T17:23:56;0.70;;;0.40;;
38224;SDS011;24025;48.138;11.428;2022-09-17T17:26:27;0.95;;;0.30;;
38224;SDS011;24025;48.138;11.428;2022-09-17T17:28:57;1.17;;;0.47;;
38224;SDS011;24025;48.138;11.428;2022-09-17T17:31:28;1.10;;;0.80;;
38224;SDS011;24025;48.138;11.428;2022-09-17T17:33:58;1.42;;;0.68;;
38224;SDS011;24025;48.138;11.428;2022-09-17T17:36:28;16.40;;;5.60;;
38224;SDS011;24025;48.138;11.428;2022-09-17T17:39:00;14.57;;;4.78;;
38224;SDS011;24025;48.138;11.428;2022-09-17T17:41:31;10.57;;;3.83;;
38224;SDS011;24025;48.138;11.428;2022-09-17T17:44:01;10.32;;;4.30;;
38224;SDS011;24025;48.138;11.428;2022-09-17T17:46:32;10.35;;;5.80;;
38224;SDS011;24025;48.138;11.428;2022-09-17T17:49:02;9.77;;;6.07;;
38224;SDS011;24025;48.138;11.428;2022-09-17T17:51:33;7.65;;;2.85;;
38224;SDS011;24025;48.138;11.428;2022-09-17T17:54:03;2.80;;;2.10;;
38224;SDS011;24025;48.138;11.428;2022-09-17T17:56:34;1.17;;;1.00;;
38224;SDS011;24025;48.138;11.428;2022-09-17T17:59:04;1.08;;;0.60;;
38224;SDS011;24025;48.138;11.428;2022-09-17T18:01:35;0.50;;;0.45;;
38224;SDS011;24025;48.138;11.428;2022-09-17T18:04:07;4.63;;;0.32;;
38224;SDS011;24025;48.138;11.428;2022-09-17T18:06:37;1.60;;;0.75;;
38224;SDS011;24025;48.138;11.428;2022-09-17T18:09:08;2.45;;;1.02;;
38224;SDS011;24025;48.138;11.428;2022-09-17T18:11:38;1.08;;;0.60;;
38224;SDS011;24025;48.138;11.428;2022-09-17T18:14:10;0.70;;;0.70;;
38224;SDS011;24025;48.138;11.428;2022-09-17T18:16:42;1.20;;;0.32;;
38224;SDS011;24025;48.138;11.428;2022-09-17T18:19:12;0.50;;;0.30;;
38224;SDS011;24025;48.138;11.428;2022-09-17T18:21:43;2.08;;;0.30;;
38224;SDS011;24025;48.138;11.428;2022-09-17T18:24:13;1.00;;;0.35;;
38224;SDS011;24025;48.138;11.428;2022-09-17T18:26:43;0.88;;;0.20;;
38224;SDS011;24025;48.138;11.428;2022-09-17T18:29:14;1.55;;;0.40;;
38224;SDS011;24025;48.138;11.428;2022-09-17T18:31:44;1.25;;;0.80;;
38224;SDS011;24025;48.138;11.428;2022-09-17T18:34:15;1.75;;;0.60;;
38224;SDS011;24025;48.138;11.428;2022-09-17T18:36:46;7.28;;;2.80;;
38224;SDS011;24025;48.138;11.428;2022-09-17T18:39:16;4.65;;;1.27;;
38224;SDS011;24025;48.138;11.428;2022-09-17T18:41:47;2.05;;;0.85;;
38224;SDS011;24025;48.138;11.428;2022-09-17T18:44:18;2.03;;;0.50;;
38224;SDS011;24025;48.138;11.428;2022-09-17T18:46:50;3.47;;;0.60;;
38224;SDS011;24025;48.138;11.428;2022-09-17T18:49:20;1.33;;;0.50;;
38224;SDS011;24025;48.138;11.428;2022-09-17T18:51:51;0.45;;;0.30;;
38224;SDS011;24025;48.138;11.428;2022-09-17T18:54:21;2.80;;;0.40;;
38224;SDS011;24025;48.138;11.428;2022-09-17T18:56:52;1.40;;;0.40;;
38224;SDS011;24025;48.138;11.428;2022-09-17T18:59:22;4.75;;;0.52;;
38224;SDS011;24025;48.138;11.428;2022-09-17T19:01:52;1.63;;;0.80;;
38224;SDS011;24025;48.138;11.428;2022-09-17T19:04:23;2.33;;;0.88;;
38224;SDS011;24025;48.138;11.428;2022-09-17T19:06:54;1.95;;;1.00;;
38224;SDS011;24025;48.138;11.428;2022-09-17T19:09:24;2.75;;;0.50;;
38224;SDS011;24025;48.138;11.428;2022-09-17T19:11:55;2.10;;;0.50;;
38224;SDS011;24025;48.138;11.428;2022-09-17T19:14:25;1.30;;;0.40;;
38224;SDS011;24025;48.138;11.428;2022-09-17T19:16:56;2.85;;;0.93;;
38224;SDS011;24025;48.138;11.428;2022-09-17T19:19:26;1.83;;;0.40;;